createdAt,value
2022-07-27T00:00:17.290Z,99288.45
2022-07-27T00:01:19.804Z,99288.30
2022-07-27T00:02:22.152Z,99292.66
2022-07-27T00:03:24.376Z,99289.97
2022-07-27T00:04:26.821Z,99284.57
2022-07-27T00:05:29.469Z,99284.44
2022-07-27T00:06:32.834Z,99289.84
2022-07-27T00:07:35.559Z,99279.88
2022-07-27T00:08:39.378Z,99291.52
2022-07-27T00:09:41.657Z,99289.69
2022-07-27T00:10:44.296Z,99294.21
2022-07-27T00:11:46.747Z,99291.52
2022-07-27T00:12:49.031Z,99292.54
2022-07-27T00:13:51.781Z,99295.23
2022-07-27T00:14:54.148Z,99293.53
2022-07-27T00:15:56.406Z,99294.38
2022-07-27T00:17:00.118Z,99295.23
2022-07-27T00:18:02.752Z,99297.94
2022-07-27T00:19:09.330Z,99300.77
2022-07-27T00:20:10.728Z,99297.38
2022-07-27T00:21:13.441Z,99303.77
2022-07-27T00:22:15.785Z,99301.08
2022-07-27T00:23:18.103Z,99307.47
2022-07-27T00:24:20.285Z,99309.33
2022-07-27T00:25:26.788Z,99305.64
2022-07-27T00:26:30.990Z,99302.07
2022-07-27T00:27:33.650Z,99308.34
2022-07-27T00:28:35.980Z,99310.05
2022-07-27T00:29:38.967Z,99301.08
2022-07-27T00:30:41.667Z,99304.64
2022-07-27T00:31:43.974Z,99312.73
2022-07-27T00:32:46.484Z,99306.47
2022-07-27T00:33:48.749Z,99300.24
2022-07-27T00:34:51.108Z,99300.24
2022-07-27T00:35:53.298Z,99303.77
2022-07-27T00:36:56.861Z,99299.37
2022-07-27T00:37:59.191Z,99295.44
2022-07-27T00:39:02.406Z,99295.44
2022-07-27T00:40:06.057Z,99301.23
2022-07-27T00:41:08.464Z,99307.63
2022-07-27T00:42:10.927Z,99304.09
2022-07-27T00:43:14.105Z,99303.09
2022-07-27T00:44:27.741Z,99306.63
2022-07-27T00:45:30.538Z,99306.63
2022-07-27T00:46:34.963Z,99303.93
2022-07-27T00:47:37.261Z,99303.93
2022-07-27T00:48:40.356Z,99299.53
2022-07-27T00:49:43.022Z,99303.09
2022-07-27T00:50:46.409Z,99297.86
2022-07-27T00:51:49.295Z,99297.86
2022-07-27T00:52:52.467Z,99304.24
2022-07-27T00:53:55.009Z,99304.24
2022-07-27T00:54:58.043Z,99298.84
2022-07-27T00:56:00.280Z,99303.41
2022-07-27T00:57:03.128Z,99297.14
2022-07-27T00:58:06.748Z,99286.35
2022-07-27T00:59:10.779Z,99293.45
2022-07-27T01:00:16.802Z,99294.45
2022-07-27T01:01:19.366Z,99293.61
2022-07-27T01:02:23.098Z,99299.84
2022-07-27T01:03:29.367Z,99293.77
2022-07-27T01:04:30.223Z,99292.74
2022-07-27T01:05:36.703Z,99295.44
2022-07-27T01:06:39.115Z,99294.45
2022-07-27T01:07:41.255Z,99292.90
2022-07-27T01:08:43.666Z,99292.90
2022-07-27T01:09:46.307Z,99292.06
2022-07-27T01:10:49.003Z,99287.50
2022-07-27T01:11:53.004Z,99292.06
2022-07-27T01:12:56.288Z,99290.36
2022-07-27T01:13:58.643Z,99286.82
2022-07-27T01:15:01.012Z,99295.75
2022-07-27T01:16:05.525Z,99289.67
2022-07-27T01:17:08.606Z,99285.95
2022-07-27T01:18:12.317Z,99286.82
2022-07-27T01:19:15.059Z,99284.13
2022-07-27T01:20:19.226Z,99285.95
2022-07-27T01:21:23.159Z,99284.13
2022-07-27T01:22:25.755Z,99278.73
2022-07-27T01:23:28.145Z,99278.73
2022-07-27T01:24:30.862Z,99286.98
2022-07-27T01:25:34.960Z,99285.24
2022-07-27T01:26:37.838Z,99278.14
2022-07-27T01:27:40.214Z,99287.23
2022-07-27T01:28:43.230Z,99272.75
2022-07-27T01:29:46.973Z,99284.41
2022-07-27T01:30:49.418Z,99287.10
2022-07-27T01:31:52.727Z,99282.55
2022-07-27T01:33:05.453Z,99287.10
2022-07-27T01:34:07.889Z,99288.77
2022-07-27T01:35:11.788Z,99299.56
2022-07-27T01:36:14.617Z,99288.77
2022-07-27T01:37:17.069Z,99285.24
2022-07-27T01:38:19.509Z,99277.77
2022-07-27T01:39:21.768Z,99277.77
2022-07-27T01:40:24.558Z,99283.54
2022-07-27T01:41:27.606Z,99284.53
2022-07-27T01:42:31.194Z,99284.53
2022-07-27T01:43:33.734Z,99282.70
2022-07-27T01:44:37.968Z,99285.55
2022-07-27T01:45:41.967Z,99288.25
2022-07-27T01:46:44.370Z,99287.38
2022-07-27T01:47:47.197Z,99291.11
2022-07-27T01:48:49.495Z,99290.08
2022-07-27T01:49:52.644Z,99284.84
2022-07-27T01:50:55.260Z,99284.84
2022-07-27T01:51:57.773Z,99284.84
2022-07-27T01:53:00.247Z,99291.11
2022-07-27T01:54:03.672Z,99285.71
2022-07-27T01:55:08.138Z,99291.11
2022-07-27T01:56:12.596Z,99290.23
2022-07-27T01:57:15.218Z,99292.94
2022-07-27T01:58:17.787Z,99288.56
2022-07-27T01:59:21.378Z,99289.56
2022-07-27T02:00:26.399Z,99289.56
2022-07-27T02:01:30.362Z,99288.69
2022-07-27T02:02:33.380Z,99290.55
2022-07-27T02:03:35.725Z,99288.01
2022-07-27T02:04:38.594Z,99289.00
2022-07-27T02:05:41.222Z,99291.55
2022-07-27T02:06:43.640Z,99282.77
2022-07-27T02:07:45.864Z,99285.31
2022-07-27T02:08:48.774Z,99291.55
2022-07-27T02:09:51.132Z,99293.41
2022-07-27T02:10:54.119Z,99294.39
2022-07-27T02:11:57.308Z,99296.26
2022-07-27T02:12:59.750Z,99305.91
2022-07-27T02:14:02.789Z,99293.41
2022-07-27T02:16:23.283Z,99294.33
2022-07-27T02:17:29.149Z,99297.25
2022-07-27T02:18:36.311Z,99299.95
2022-07-27T02:19:38.101Z,99296.41
2022-07-27T02:20:40.764Z,99301.81
2022-07-27T02:21:42.916Z,99290.15
2022-07-27T02:22:45.593Z,99294.55
2022-07-27T02:23:48.983Z,99299.11
2022-07-27T02:24:51.307Z,99292.84
2022-07-27T02:25:54.533Z,99295.55
2022-07-27T02:26:58.517Z,99302.80
2022-07-27T02:28:01.144Z,99301.81
2022-07-27T02:29:03.544Z,99289.31
2022-07-27T02:30:08.579Z,99294.55
2022-07-27T02:31:10.780Z,99301.81
2022-07-27T02:32:13.200Z,99293.72
2022-07-27T02:33:15.406Z,99301.81
2022-07-27T02:34:18.666Z,99301.96
2022-07-27T02:35:21.249Z,99298.24
2022-07-27T02:36:25.759Z,99292.84
2022-07-27T02:37:28.017Z,99297.41
2022-07-27T02:38:30.301Z,99298.40
2022-07-27T02:39:33.052Z,99301.25
2022-07-27T02:40:36.199Z,99298.55
2022-07-27T02:41:39.500Z,99294.15
2022-07-27T02:42:42.167Z,99307.64
2022-07-27T02:43:44.494Z,99300.56
2022-07-27T02:44:46.774Z,99299.86
2022-07-27T02:45:49.156Z,99305.25
2022-07-27T02:46:51.647Z,99297.47
2022-07-27T02:47:55.388Z,99297.47
2022-07-27T02:48:58.043Z,99302.15
2022-07-27T02:50:01.786Z,99298.45
2022-07-27T02:51:04.577Z,99299.45
2022-07-27T02:52:07.091Z,99302.15
2022-07-27T02:53:09.557Z,99299.61
2022-07-27T02:54:12.017Z,99304.01
2022-07-27T02:55:15.305Z,99302.15
2022-07-27T02:56:18.074Z,99304.84
2022-07-27T02:57:21.361Z,99303.17
2022-07-27T02:58:23.842Z,99303.17
2022-07-27T02:59:26.494Z,99304.31
2022-07-27T03:00:30.801Z,99300.78
2022-07-27T03:01:35.150Z,99300.78
2022-07-27T03:02:39.421Z,99303.48
2022-07-27T03:03:41.883Z,99306.30
2022-07-27T03:04:44.287Z,99309.86
2022-07-27T03:05:46.909Z,99305.46
2022-07-27T03:06:50.298Z,99308.31
2022-07-27T03:07:52.666Z,99308.31
2022-07-27T03:08:56.067Z,99304.78
2022-07-27T03:09:59.137Z,99299.39
2022-07-27T03:11:01.692Z,99306.61
2022-07-27T03:12:04.134Z,99301.52
2022-07-27T03:13:06.518Z,99308.77
2022-07-27T03:14:08.882Z,99303.38
2022-07-27T03:15:11.288Z,99300.53
2022-07-27T03:16:14.704Z,99305.92
2022-07-27T03:17:17.401Z,99299.39
2022-07-27T03:18:20.670Z,99303.76
2022-07-27T03:19:28.277Z,99301.22
2022-07-27T03:20:29.168Z,99304.78
2022-07-27T03:21:31.532Z,99306.61
2022-07-27T03:22:34.014Z,99303.91
2022-07-27T03:23:37.814Z,99308.47
2022-07-27T03:24:40.177Z,99313.86
2022-07-27T03:25:42.513Z,99312.16
2022-07-27T03:26:44.889Z,99310.45
2022-07-27T03:27:47.469Z,99311.32
2022-07-27T03:28:49.728Z,99309.30
2022-07-27T03:29:52.090Z,99311.16
2022-07-27T03:30:54.516Z,99311.84
2022-07-27T03:31:56.938Z,99316.09
2022-07-27T03:32:59.178Z,99318.64
2022-07-27T03:34:02.321Z,99312.25
2022-07-27T03:35:05.693Z,99323.05
2022-07-27T03:36:09.453Z,99315.94
2022-07-27T03:37:11.723Z,99312.41
2022-07-27T03:38:14.061Z,99319.51
2022-07-27T03:39:16.525Z,99316.81
2022-07-27T03:40:19.913Z,99315.78
2022-07-27T03:41:22.613Z,99315.78
2022-07-27T03:42:25.046Z,99313.96
2022-07-27T03:43:29.087Z,99319.36
2022-07-27T03:44:31.623Z,99314.95
2022-07-27T03:45:34.172Z,99307.85
2022-07-27T03:46:36.644Z,99315.94
2022-07-27T03:47:40.336Z,99315.94
2022-07-27T03:48:42.872Z,99310.70
2022-07-27T03:49:45.749Z,99319.66
2022-07-27T03:50:48.427Z,99319.66
2022-07-27T03:51:50.721Z,99317.24
2022-07-27T03:52:53.348Z,99321.95
2022-07-27T03:53:56.357Z,99325.80
2022-07-27T03:54:59.983Z,99334.03
2022-07-27T03:56:02.820Z,99322.53
2022-07-27T03:57:05.590Z,99325.23
2022-07-27T03:58:07.961Z,99333.16
2022-07-27T03:59:10.992Z,99323.41
2022-07-27T04:00:16.055Z,99328.64
2022-07-27T04:01:19.772Z,99337.27
2022-07-27T04:02:22.651Z,99333.73
2022-07-27T04:03:25.223Z,99333.73
2022-07-27T04:04:27.755Z,99333.73
2022-07-27T04:05:30.215Z,99339.95
2022-07-27T04:06:33.291Z,99336.98
2022-07-27T04:07:35.580Z,99324.34
2022-07-27T04:08:38.069Z,99340.37
2022-07-27T04:09:42.426Z,99335.84
2022-07-27T04:10:48.277Z,99329.42
2022-07-27T04:11:51.623Z,99333.83
2022-07-27T04:12:54.431Z,99332.84
2022-07-27T04:13:56.803Z,99330.98
2022-07-27T04:14:59.773Z,99326.42
2022-07-27T04:16:02.150Z,99330.83
2022-07-27T04:17:04.493Z,99328.13
2022-07-27T04:18:06.700Z,99325.43
2022-07-27T04:19:09.084Z,99331.70
2022-07-27T04:20:12.777Z,99327.29
2022-07-27T04:21:17.328Z,99329.12
2022-07-27T04:22:19.712Z,99323.88
2022-07-27T04:23:22.185Z,99327.59
2022-07-27T04:24:24.519Z,99324.03
2022-07-27T04:25:28.718Z,99323.20
2022-07-27T04:26:33.739Z,99319.51
2022-07-27T04:27:36.311Z,99326.58
2022-07-27T04:28:38.865Z,99328.28
2022-07-27T04:29:41.641Z,99327.29
2022-07-27T04:30:44.513Z,99331.70
2022-07-27T04:31:46.979Z,99324.59
2022-07-27T04:32:49.447Z,99330.83
2022-07-27T04:33:52.632Z,99330.98
2022-07-27T04:34:54.960Z,99330.98
2022-07-27T04:35:57.130Z,99330.14
2022-07-27T04:36:59.605Z,99324.59
2022-07-27T04:38:03.205Z,99332.53
2022-07-27T04:39:05.540Z,99327.14
2022-07-27T04:40:10.661Z,99321.33
2022-07-27T04:41:13.869Z,99321.33
2022-07-27T04:42:16.436Z,99329.83
2022-07-27T04:43:18.665Z,99330.67
2022-07-27T04:44:21.163Z,99328.84
2022-07-27T04:45:24.136Z,99327.97
2022-07-27T04:46:29.971Z,99329.68
2022-07-27T04:47:32.655Z,99329.68
2022-07-27T04:48:35.288Z,99325.13
2022-07-27T04:49:37.695Z,99331.38
2022-07-27T04:50:44.045Z,99336.78
2022-07-27T04:51:47.069Z,99333.22
2022-07-27T04:52:49.585Z,99334.92
2022-07-27T04:53:53.383Z,99333.09
2022-07-27T04:54:56.503Z,99333.09
2022-07-27T04:55:59.523Z,99335.78
2022-07-27T04:57:02.003Z,99335.91
2022-07-27T04:58:05.324Z,99330.67
2022-07-27T04:59:08.335Z,99330.67
2022-07-27T05:00:13.076Z,99333.37
2022-07-27T05:01:15.399Z,99333.22
2022-07-27T05:02:17.905Z,99335.08
2022-07-27T05:03:20.267Z,99330.39
2022-07-27T05:04:22.895Z,99337.46
2022-07-27T05:05:25.913Z,99333.93
2022-07-27T05:06:29.404Z,99337.46
2022-07-27T05:07:31.869Z,99341.87
2022-07-27T05:08:34.943Z,99334.61
2022-07-27T05:09:38.478Z,99339.88
2022-07-27T05:10:40.900Z,99339.88
2022-07-27T05:11:50.697Z,99343.27
2022-07-27T05:12:48.469Z,99345.95
2022-07-27T05:13:50.894Z,99347.82
2022-07-27T05:14:53.060Z,99345.95
2022-07-27T05:15:56.091Z,99343.27
2022-07-27T05:17:00.068Z,99351.20
2022-07-27T05:18:02.978Z,99344.10
2022-07-27T05:19:06.048Z,99345.80
2022-07-27T05:20:10.962Z,99346.80
2022-07-27T05:21:13.293Z,99353.90
2022-07-27T05:22:16.197Z,99347.67
2022-07-27T05:23:20.334Z,99347.52
2022-07-27T05:24:22.651Z,99358.30
2022-07-27T05:25:25.020Z,99345.66
2022-07-27T05:26:27.506Z,99352.75
2022-07-27T05:27:29.855Z,99353.59
2022-07-27T05:28:32.624Z,99354.45
2022-07-27T05:29:34.887Z,99349.91
2022-07-27T05:30:39.396Z,99352.59
2022-07-27T05:31:41.829Z,99347.52
2022-07-27T05:32:45.390Z,99351.20
2022-07-27T05:33:49.770Z,99349.34
2022-07-27T05:34:52.137Z,99347.52
2022-07-27T05:35:55.305Z,99347.36
2022-07-27T05:36:58.418Z,99350.05
2022-07-27T05:38:00.950Z,99353.44
2022-07-27T05:39:03.456Z,99355.30
2022-07-27T05:40:07.826Z,99353.44
2022-07-27T05:41:10.494Z,99359.70
2022-07-27T05:42:13.773Z,99355.14
2022-07-27T05:43:16.168Z,99352.29
2022-07-27T05:44:19.615Z,99351.45
2022-07-27T05:45:22.534Z,99350.46
2022-07-27T05:46:32.469Z,99359.39
2022-07-27T05:47:30.902Z,99356.54
2022-07-27T05:48:35.195Z,99351.30
2022-07-27T05:49:37.479Z,99357.53
2022-07-27T05:50:39.984Z,99355.70
2022-07-27T05:51:42.415Z,99356.54
2022-07-27T05:52:45.682Z,99348.44
2022-07-27T05:53:48.161Z,99355.70
2022-07-27T05:54:50.912Z,99357.84
2022-07-27T05:55:59.434Z,99363.39
2022-07-27T05:56:58.723Z,99363.39
2022-07-27T05:58:01.004Z,99361.53
2022-07-27T05:59:06.958Z,99354.45
2022-07-27T06:00:12.426Z,99356.29
2022-07-27T06:01:15.455Z,99364.69
2022-07-27T06:02:19.074Z,99354.20
2022-07-27T06:03:22.160Z,99361.46
2022-07-27T06:04:24.881Z,99360.59
2022-07-27T06:05:27.346Z,99351.66
2022-07-27T06:06:30.570Z,99351.66
2022-07-27T06:07:34.931Z,99357.89
2022-07-27T06:08:37.404Z,99360.44
2022-07-27T06:09:39.970Z,99361.31
2022-07-27T06:10:43.489Z,99363.85
2022-07-27T06:11:47.563Z,99356.75
2022-07-27T06:12:50.274Z,99358.77
2022-07-27T06:13:52.693Z,99363.29
2022-07-27T06:14:55.055Z,99367.69
2022-07-27T06:15:58.884Z,99364.00
2022-07-27T06:17:02.265Z,99362.45
2022-07-27T06:18:06.081Z,99367.13
2022-07-27T06:19:08.838Z,99364.44
2022-07-27T06:20:13.421Z,99368.84
2022-07-27T06:21:16.389Z,99373.40
2022-07-27T06:22:20.499Z,99368.99
2022-07-27T06:23:22.866Z,99370.55
2022-07-27T06:24:26.657Z,99373.09
2022-07-27T06:25:35.722Z,99366.86
2022-07-27T06:26:38.564Z,99375.79
2022-07-27T06:27:40.848Z,99368.00
2022-07-27T06:28:43.114Z,99366.45
2022-07-27T06:29:45.533Z,99371.84
2022-07-27T06:30:47.853Z,99363.59
2022-07-27T06:31:50.157Z,99373.40
2022-07-27T06:32:53.461Z,99368.84
2022-07-27T06:33:55.922Z,99372.25
2022-07-27T06:35:00.725Z,99373.09
2022-07-27T06:36:04.108Z,99379.47
2022-07-27T06:37:06.922Z,99373.24
2022-07-27T06:38:09.857Z,99375.94
2022-07-27T06:39:12.486Z,99371.84
2022-07-27T06:40:16.223Z,99372.98
2022-07-27T06:41:20.832Z,99375.84
2022-07-27T06:42:23.137Z,99374.13
2022-07-27T06:44:40.372Z,99376.63
2022-07-27T06:45:42.672Z,99383.63
2022-07-27T06:46:46.839Z,99383.63
2022-07-27T06:47:50.213Z,99378.08
2022-07-27T06:48:52.855Z,99378.95
2022-07-27T06:49:55.206Z,99379.62
2022-07-27T06:50:57.558Z,99374.95
2022-07-27T06:52:00.025Z,99376.63
2022-07-27T06:53:02.605Z,99376.47
2022-07-27T06:54:05.768Z,99377.34
2022-07-27T06:55:08.798Z,99371.95
2022-07-27T06:56:11.713Z,99373.77
2022-07-27T06:57:14.913Z,99375.48
2022-07-27T06:58:18.286Z,99376.31
2022-07-27T06:59:20.641Z,99377.03
2022-07-27T07:00:24.787Z,99375.17
2022-07-27T07:01:27.257Z,99372.47
2022-07-27T07:02:29.823Z,99383.11
2022-07-27T07:03:32.150Z,99375.89
2022-07-27T07:04:35.566Z,99380.30
2022-07-27T07:05:43.626Z,99371.17
2022-07-27T07:06:46.809Z,99369.34
2022-07-27T07:07:49.477Z,99372.05
2022-07-27T07:08:51.944Z,99372.88
2022-07-27T07:09:54.183Z,99370.19
2022-07-27T07:10:56.830Z,99372.05
2022-07-27T07:11:59.833Z,99369.34
2022-07-27T07:13:05.796Z,99370.19
2022-07-27T07:14:08.197Z,99372.05
2022-07-27T07:15:10.716Z,99369.50
2022-07-27T07:16:14.088Z,99375.73
2022-07-27T07:17:16.607Z,99369.50
2022-07-27T07:18:20.070Z,99374.89
2022-07-27T07:19:23.775Z,99371.17
2022-07-27T07:20:27.963Z,99371.02
2022-07-27T07:21:30.983Z,99370.34
2022-07-27T07:22:33.918Z,99364.78
2022-07-27T07:23:36.379Z,99373.72
2022-07-27T07:24:38.847Z,99370.19
2022-07-27T07:25:41.310Z,99371.02
2022-07-27T07:26:43.993Z,99371.02
2022-07-27T07:27:46.234Z,99368.32
2022-07-27T07:28:49.518Z,99368.17
2022-07-27T07:29:52.699Z,99376.14
2022-07-27T07:30:55.755Z,99380.82
2022-07-27T07:31:58.888Z,99371.02
2022-07-27T07:33:01.452Z,99371.02
2022-07-27T07:34:04.605Z,99379.11
2022-07-27T07:35:08.851Z,99364.78
2022-07-27T07:36:14.959Z,99378.28
2022-07-27T07:37:18.149Z,99365.62
2022-07-27T07:38:21.437Z,99371.89
2022-07-27T07:39:30.787Z,99373.56
2022-07-27T07:40:45.219Z,99370.03
2022-07-27T07:41:36.193Z,99371.73
2022-07-27T07:44:11.969Z,99362.89
2022-07-27T07:45:15.333Z,99372.72
2022-07-27T07:46:20.102Z,99371.02
2022-07-27T07:47:23.639Z,99364.78
2022-07-27T07:48:26.218Z,99372.05
2022-07-27T07:49:39.168Z,99369.34
2022-07-27T07:50:32.683Z,99374.89
2022-07-27T07:51:36.055Z,99374.89
2022-07-27T07:52:39.476Z,99376.57
2022-07-27T07:53:42.051Z,99376.57
2022-07-27T07:54:45.082Z,99372.05
2022-07-27T07:55:47.701Z,99371.89
2022-07-27T07:56:50.605Z,99371.89
2022-07-27T07:57:53.227Z,99371.73
2022-07-27T07:58:57.235Z,99376.14
2022-07-27T08:00:00.071Z,99368.88
2022-07-27T08:01:03.312Z,99376.98
2022-07-27T08:02:06.810Z,99373.31
2022-07-27T08:03:09.189Z,99373.31
2022-07-27T08:04:11.457Z,99373.31
2022-07-27T08:05:14.024Z,99378.72
2022-07-27T08:06:18.752Z,99373.31
2022-07-27T08:07:21.503Z,99374.16
2022-07-27T08:08:24.788Z,99374.16
2022-07-27T08:09:29.679Z,99374.99
2022-07-27T08:10:32.965Z,99374.99
2022-07-27T08:11:35.267Z,99373.16
2022-07-27T08:12:39.827Z,99382.09
2022-07-27T08:13:43.174Z,99373.01
2022-07-27T08:14:45.631Z,99381.94
2022-07-27T08:15:47.953Z,99383.80
2022-07-27T08:16:50.971Z,99376.98
2022-07-27T08:17:53.515Z,99376.98
2022-07-27T08:18:55.768Z,99385.51
2022-07-27T08:20:00.003Z,99389.88
2022-07-27T08:21:03.526Z,99383.64
2022-07-27T08:22:06.368Z,99383.64
2022-07-27T08:23:08.734Z,99388.05
2022-07-27T08:24:12.011Z,99376.39
2022-07-27T08:25:15.344Z,99383.49
2022-07-27T08:26:18.860Z,99378.97
2022-07-27T08:27:21.352Z,99389.76
2022-07-27T08:28:23.643Z,99382.66
2022-07-27T08:29:36.558Z,99378.09
2022-07-27T08:30:32.333Z,99378.97
2022-07-27T08:31:52.319Z,99374.41
2022-07-27T08:34:01.810Z,99373.50
2022-07-27T08:35:04.971Z,99375.40
2022-07-27T08:36:07.997Z,99372.70
2022-07-27T08:37:15.227Z,99372.70
2022-07-27T08:38:15.172Z,99378.97
2022-07-27T08:39:52.338Z,99374.56
2022-07-27T08:40:41.701Z,99378.09
2022-07-27T08:41:28.102Z,99380.80
2022-07-27T08:42:31.560Z,99377.94
2022-07-27T08:43:34.771Z,99377.10
2022-07-27T08:45:55.851Z,99373.34
2022-07-27T08:46:59.908Z,99379.64
2022-07-27T08:48:02.656Z,99376.11
2022-07-27T08:49:06.593Z,99368.02
2022-07-27T08:50:12.527Z,99368.02
2022-07-27T08:51:14.731Z,99370.71
2022-07-27T08:52:17.002Z,99370.71
2022-07-27T08:53:19.893Z,99368.02
2022-07-27T08:54:22.937Z,99368.02
2022-07-27T08:55:25.331Z,99372.39
2022-07-27T08:56:27.897Z,99364.29
2022-07-27T08:57:30.765Z,99363.45
2022-07-27T08:58:33.160Z,99366.99
2022-07-27T08:59:35.703Z,99368.02
2022-07-27T09:00:41.140Z,99366.16
2022-07-27T09:01:45.594Z,99366.16
2022-07-27T09:02:48.242Z,99374.25
2022-07-27T09:03:51.349Z,99368.02
2022-07-27T09:04:54.587Z,99367.14
2022-07-27T09:05:57.792Z,99366.16
2022-07-27T09:07:00.382Z,99366.16
2022-07-27T09:08:09.752Z,99365.16
2022-07-27T09:09:13.629Z,99365.16
2022-07-27T09:10:32.190Z,99363.30
2022-07-27T09:11:34.995Z,99358.73
2022-07-27T09:12:38.680Z,99357.91
2022-07-27T09:13:41.286Z,99362.62
2022-07-27T09:14:44.196Z,99366.31
2022-07-27T09:16:16.400Z,99362.89
2022-07-27T09:17:45.764Z,99361.07
2022-07-27T09:17:59.616Z,99365.59
2022-07-27T09:20:19.282Z,99364.54
2022-07-27T09:21:23.788Z,99361.91
2022-07-27T09:22:53.180Z,99361.91
2022-07-27T09:25:38.760Z,99357.99
2022-07-27T09:26:33.793Z,99359.77
2022-07-27T09:27:33.108Z,99356.35
2022-07-27T09:28:35.614Z,99363.45
2022-07-27T09:29:38.502Z,99362.47
2022-07-27T09:30:43.803Z,99357.91
2022-07-27T09:31:49.943Z,99360.60
2022-07-27T09:32:57.947Z,99358.73
2022-07-27T09:34:01.707Z,99363.14
2022-07-27T09:35:18.234Z,99356.91
2022-07-27T09:36:24.401Z,99358.61
2022-07-27T09:37:27.248Z,99356.75
2022-07-27T09:38:30.320Z,99355.92
2022-07-27T09:39:32.875Z,99364.02
2022-07-27T09:40:35.508Z,99360.45
2022-07-27T09:41:42.223Z,99359.45
2022-07-27T09:43:09.116Z,99360.29
2022-07-27T09:44:59.673Z,99352.19
2022-07-27T09:46:05.711Z,99355.76
2022-07-27T09:48:39.333Z,99363.63
2022-07-27T09:49:42.353Z,99357.59
2022-07-27T09:51:01.928Z,99364.02
2022-07-27T09:53:41.345Z,99363.95
2022-07-27T09:54:18.660Z,99365.84
2022-07-27T09:55:21.456Z,99365.84
2022-07-27T09:56:30.274Z,99367.70
2022-07-27T09:57:53.413Z,99370.41
2022-07-27T10:00:11.116Z,99368.63
2022-07-27T10:01:22.548Z,99370.56
2022-07-27T10:02:25.861Z,99368.85
2022-07-27T10:03:29.583Z,99361.75
2022-07-27T10:04:32.700Z,99370.71
2022-07-27T10:05:35.864Z,99368.02
2022-07-27T10:07:00.285Z,99369.84
2022-07-27T10:07:44.153Z,99369.01
2022-07-27T10:08:48.381Z,99372.55
2022-07-27T10:09:51.640Z,99370.71
2022-07-27T10:10:54.559Z,99368.85
2022-07-27T10:11:57.390Z,99371.39
2022-07-27T10:12:59.754Z,99368.70
2022-07-27T10:14:03.243Z,99373.10
2022-07-27T10:15:08.005Z,99369.41
2022-07-27T10:17:25.466Z,99373.44
2022-07-27T10:18:55.845Z,99371.64
2022-07-27T10:19:59.960Z,99371.80
2022-07-27T10:21:06.973Z,99373.50
2022-07-27T10:22:10.652Z,99369.78
2022-07-27T10:23:27.864Z,99379.58
2022-07-27T10:24:31.572Z,99370.65
2022-07-27T10:25:37.869Z,99372.48
2022-07-27T10:26:41.143Z,99367.95
2022-07-27T10:27:46.040Z,99363.55
2022-07-27T10:28:51.147Z,99363.70
2022-07-27T10:29:54.537Z,99363.86
2022-07-27T10:31:14.737Z,99366.71
2022-07-27T10:33:47.194Z,99363.23
2022-07-27T10:34:49.959Z,99366.00
2022-07-27T10:35:52.323Z,99364.29
2022-07-27T10:36:55.408Z,99364.45
2022-07-27T10:38:09.520Z,99363.61
2022-07-27T10:39:13.318Z,99369.01
2022-07-27T10:40:19.123Z,99369.01
2022-07-27T10:41:40.697Z,99366.31
2022-07-27T10:42:44.200Z,99366.47
2022-07-27T10:43:46.447Z,99366.31
2022-07-27T10:44:58.739Z,99365.47
2022-07-27T10:46:03.056Z,99364.45
2022-07-27T10:47:05.603Z,99365.31
2022-07-27T10:48:08.111Z,99372.39
2022-07-27T10:50:30.201Z,99368.31
2022-07-27T10:51:36.002Z,99368.39
2022-07-27T10:52:43.225Z,99370.09
2022-07-27T10:54:53.635Z,99370.80
2022-07-27T10:55:55.118Z,99373.34
2022-07-27T10:56:58.711Z,99363.39
2022-07-27T10:58:04.865Z,99362.39
2022-07-27T10:59:07.369Z,99368.63
2022-07-27T11:00:16.330Z,99370.34
2022-07-27T11:01:15.862Z,99366.80
2022-07-27T11:02:19.735Z,99365.77
2022-07-27T11:03:23.963Z,99361.25
2022-07-27T11:04:27.782Z,99368.31
2022-07-27T11:05:59.078Z,99362.92
2022-07-27T11:07:04.709Z,99363.08
2022-07-27T11:07:46.374Z,99363.08
2022-07-27T11:09:08.520Z,99368.48
2022-07-27T11:10:09.186Z,99368.31
2022-07-27T11:11:00.279Z,99371.02
2022-07-27T11:12:07.154Z,99368.16
2022-07-27T11:13:10.807Z,99366.48
2022-07-27T11:14:13.803Z,99375.27
2022-07-27T11:15:18.711Z,99368.87
2022-07-27T11:16:25.869Z,99364.31
2022-07-27T11:19:56.753Z,99368.33
2022-07-27T11:21:26.188Z,99377.53
2022-07-27T11:23:51.647Z,99365.70
2022-07-27T11:24:51.612Z,99362.17
2022-07-27T11:25:59.240Z,99370.27
2022-07-27T11:27:02.194Z,99364.87
2022-07-27T11:28:07.354Z,99364.87
2022-07-27T11:29:12.207Z,99353.67
2022-07-27T11:30:27.771Z,99353.67
2022-07-27T11:31:54.218Z,99363.16
2022-07-27T11:32:36.846Z,99360.47
2022-07-27T11:33:58.044Z,99358.63
2022-07-27T11:35:03.821Z,99356.92
2022-07-27T11:36:07.294Z,99354.23
2022-07-27T11:37:14.701Z,99358.76
2022-07-27T11:38:17.118Z,99355.22
2022-07-27T11:39:54.235Z,99357.08
2022-07-27T11:41:55.875Z,99345.42
2022-07-27T11:42:39.410Z,99349.98
2022-07-27T11:43:45.561Z,99352.68
2022-07-27T11:44:47.816Z,99350.97
2022-07-27T11:45:51.534Z,99347.59
2022-07-27T11:46:57.395Z,99359.23
2022-07-27T11:47:59.581Z,99349.27
2022-07-27T11:49:07.063Z,99352.84
2022-07-27T11:50:09.871Z,99349.27
2022-07-27T11:51:15.560Z,99354.67
2022-07-27T11:52:18.070Z,99359.23
2022-07-27T11:53:20.392Z,99353.83
2022-07-27T11:54:31.255Z,99357.52
2022-07-27T11:55:33.790Z,99347.59
2022-07-27T11:56:40.097Z,99361.25
2022-07-27T11:57:42.639Z,99357.68
2022-07-27T12:00:13.756Z,99356.45
2022-07-27T12:01:34.165Z,99358.39
2022-07-27T12:02:37.066Z,99356.53
2022-07-27T12:03:46.998Z,99357.36
2022-07-27T12:04:45.732Z,99357.36
2022-07-27T12:05:53.985Z,99358.23
2022-07-27T12:07:21.534Z,99355.38
2022-07-27T12:08:24.704Z,99358.08
2022-07-27T12:09:27.458Z,99356.22
2022-07-27T12:10:35.895Z,99356.22
2022-07-27T12:11:55.940Z,99354.38
2022-07-27T12:12:59.594Z,99357.08
2022-07-27T12:14:05.591Z,99355.38
2022-07-27T12:15:44.276Z,99357.08
2022-07-27T12:16:21.471Z,99356.22
2022-07-27T12:17:36.955Z,99361.61
2022-07-27T12:18:43.853Z,99364.31
2022-07-27T12:19:51.524Z,99365.18
2022-07-27T12:20:54.292Z,99361.45
2022-07-27T12:21:56.465Z,99356.06
2022-07-27T12:23:05.908Z,99354.38
2022-07-27T12:24:09.784Z,99357.08
2022-07-27T12:25:24.909Z,99361.45
2022-07-27T12:26:30.112Z,99357.92
2022-07-27T12:27:33.135Z,99362.48
2022-07-27T12:28:35.647Z,99358.91
2022-07-27T12:30:00.877Z,99365.18
2022-07-27T12:31:03.301Z,99367.88
2022-07-27T12:32:05.897Z,99364.31
2022-07-27T12:33:28.348Z,99354.55
2022-07-27T12:34:35.976Z,99365.18
2022-07-27T12:35:46.276Z,99361.77
2022-07-27T12:36:50.089Z,99360.06
2022-07-27T12:39:26.348Z,99358.00
2022-07-27T12:40:30.654Z,99360.94
2022-07-27T12:41:33.417Z,99359.23
2022-07-27T12:42:35.996Z,99362.77
2022-07-27T12:43:39.231Z,99368.16
2022-07-27T12:44:44.171Z,99365.47
2022-07-27T12:45:48.458Z,99371.73
2022-07-27T12:50:46.619Z,99368.03
2022-07-27T12:51:49.052Z,99374.43
2022-07-27T12:52:52.234Z,99386.93
2022-07-27T12:53:54.903Z,99369.78
2022-07-27T12:54:58.350Z,99379.98
2022-07-27T12:57:46.379Z,99385.31
2022-07-27T12:58:22.850Z,99387.21
2022-07-27T12:59:26.067Z,99403.56
2022-07-27T13:00:33.705Z,99389.23
2022-07-27T13:01:35.344Z,99386.53
2022-07-27T13:02:38.652Z,99392.61
2022-07-27T13:03:40.955Z,99404.27